sensor_id;sensor_type;location;lat;lon;timestamp;temperature;humidity
67586;SHT31;55785;47.946;20.540;2023-04-15T00:02:20;5.94;89.03
67586;SHT31;55785;47.946;20.540;2023-04-15T00:04:46;5.86;89.04
67586;SHT31;55785;47.946;20.540;2023-04-15T00:07:11;5.87;89.11
67586;SHT31;55785;47.946;20.540;2023-04-15T00:09:37;5.86;89.14
67586;SHT31;55785;47.946;20.540;2023-04-15T00:12:02;5.92;89.15
67586;SHT31;55785;47.946;20.540;2023-04-15T00:14:28;5.90;89.33
67586;SHT31;55785;47.946;20.540;2023-04-15T00:16:53;5.93;89.38
67586;SHT31;55785;47.946;20.540;2023-04-15T00:19:18;5.87;89.50
67586;SHT31;55785;47.946;20.540;2023-04-15T00:21:44;5.93;89.69
67586;SHT31;55785;47.946;20.540;2023-04-15T00:24:09;5.92;89.68
67586;SHT31;55785;47.946;20.540;2023-04-15T00:26:34;6.01;89.54
67586;SHT31;55785;47.946;20.540;2023-04-15T00:29:00;6.11;89.46
67586;SHT31;55785;47.946;20.540;2023-04-15T00:31:25;6.06;89.32
67586;SHT31;55785;47.946;20.540;2023-04-15T00:33:50;6.01;89.17
67586;SHT31;55785;47.946;20.540;2023-04-15T00:36:16;5.97;90.08
67586;SHT31;55785;47.946;20.540;2023-04-15T00:38:41;5.99;90.09
67586;SHT31;55785;47.946;20.540;2023-04-15T00:41:07;5.99;90.22
67586;SHT31;55785;47.946;20.540;2023-04-15T00:43:33;5.99;89.92
67586;SHT31;55785;47.946;20.540;2023-04-15T00:45:59;5.89;89.72
67586;SHT31;55785;47.946;20.540;2023-04-15T00:48:26;5.92;89.91
67586;SHT31;55785;47.946;20.540;2023-04-15T00:50:51;5.83;90.02
67586;SHT31;55785;47.946;20.540;2023-04-15T00:53:16;5.82;90.01
67586;SHT31;55785;47.946;20.540;2023-04-15T00:55:42;5.83;89.86
67586;SHT31;55785;47.946;20.540;2023-04-15T00:58:07;5.72;89.62
67586;SHT31;55785;47.946;20.540;2023-04-15T01:00:32;5.65;90.13
67586;SHT31;55785;47.946;20.540;2023-04-15T01:02:58;5.65;89.50
67586;SHT31;55785;47.946;20.540;2023-04-15T01:05:23;5.58;89.65
67586;SHT31;55785;47.946;20.540;2023-04-15T01:07:49;5.56;89.90
67586;SHT31;55785;47.946;20.540;2023-04-15T01:10:14;5.56;89.71
67586;SHT31;55785;47.946;20.540;2023-04-15T01:12:39;5.60;89.77
67586;SHT31;55785;47.946;20.540;2023-04-15T01:15:05;5.67;89.85
67586;SHT31;55785;47.946;20.540;2023-04-15T01:17:31;5.83;90.28
67586;SHT31;55785;47.946;20.540;2023-04-15T01:19:56;5.96;90.89
67586;SHT31;55785;47.946;20.540;2023-04-15T01:22:23;6.14;90.63
67586;SHT31;55785;47.946;20.540;2023-04-15T01:24:54;6.28;90.79
67586;SHT31;55785;47.946;20.540;2023-04-15T01:27:24;6.35;90.56
67586;SHT31;55785;47.946;20.540;2023-04-15T01:29:49;6.40;90.44
67586;SHT31;55785;47.946;20.540;2023-04-15T01:32:14;6.45;90.36
67586;SHT31;55785;47.946;20.540;2023-04-15T01:34:40;6.49;90.17
67586;SHT31;55785;47.946;20.540;2023-04-15T01:37:05;6.52;90.03
67586;SHT31;55785;47.946;20.540;2023-04-15T01:39:30;6.44;89.93
67586;SHT31;55785;47.946;20.540;2023-04-15T01:41:56;6.41;89.95
67586;SHT31;55785;47.946;20.540;2023-04-15T01:44:21;6.44;89.98
67586;SHT31;55785;47.946;20.540;2023-04-15T01:46:47;6.46;89.97
67586;SHT31;55785;47.946;20.540;2023-04-15T01:49:12;6.49;89.92
67586;SHT31;55785;47.946;20.540;2023-04-15T01:51:37;6.55;89.99
67586;SHT31;55785;47.946;20.540;2023-04-15T01:54:03;6.62;89.93
67586;SHT31;55785;47.946;20.540;2023-04-15T01:56:28;6.68;89.87
67586;SHT31;55785;47.946;20.540;2023-04-15T01:58:53;6.73;89.83
67586;SHT31;55785;47.946;20.540;2023-04-15T02:01:19;6.68;89.79
67586;SHT31;55785;47.946;20.540;2023-04-15T02:03:44;6.67;89.75
67586;SHT31;55785;47.946;20.540;2023-04-15T02:06:10;6.64;89.72
67586;SHT31;55785;47.946;20.540;2023-04-15T02:08:35;6.56;89.76
67586;SHT31;55785;47.946;20.540;2023-04-15T02:11:01;6.55;90.11
67586;SHT31;55785;47.946;20.540;2023-04-15T02:13:26;6.59;90.23
67586;SHT31;55785;47.946;20.540;2023-04-15T02:15:51;6.67;90.19
67586;SHT31;55785;47.946;20.540;2023-04-15T02:18:17;6.69;90.09
67586;SHT31;55785;47.946;20.540;2023-04-15T02:20:42;6.69;90.00
67586;SHT31;55785;47.946;20.540;2023-04-15T02:23:08;6.69;89.97
67586;SHT31;55785;47.946;20.540;2023-04-15T02:25:33;6.68;89.94
67586;SHT31;55785;47.946;20.540;2023-04-15T02:27:58;6.71;89.95
67586;SHT31;55785;47.946;20.540;2023-04-15T02:30:24;6.69;89.79
67586;SHT31;55785;47.946;20.540;2023-04-15T02:32:49;6.68;89.77
67586;SHT31;55785;47.946;20.540;2023-04-15T02:35:14;6.68;89.81
67586;SHT31;55785;47.946;20.540;2023-04-15T02:37:40;6.58;89.95
67586;SHT31;55785;47.946;20.540;2023-04-15T02:40:07;6.52;89.93
67586;SHT31;55785;47.946;20.540;2023-04-15T02:42:33;6.65;89.91
67586;SHT31;55785;47.946;20.540;2023-04-15T02:44:58;6.72;89.80
67586;SHT31;55785;47.946;20.540;2023-04-15T02:47:23;6.68;89.63
67586;SHT31;55785;47.946;20.540;2023-04-15T02:49:48;6.68;89.72
67586;SHT31;55785;47.946;20.540;2023-04-15T02:52:14;6.61;89.68
67586;SHT31;55785;47.946;20.540;2023-04-15T02:54:39;6.56;89.70
67586;SHT31;55785;47.946;20.540;2023-04-15T02:57:04;6.51;89.68
67586;SHT31;55785;47.946;20.540;2023-04-15T02:59:30;6.48;89.74
67586;SHT31;55785;47.946;20.540;2023-04-15T03:01:55;6.46;89.81
67586;SHT31;55785;47.946;20.540;2023-04-15T03:04:20;6.49;89.82
67586;SHT31;55785;47.946;20.540;2023-04-15T03:06:46;6.52;89.79
67586;SHT31;55785;47.946;20.540;2023-04-15T03:09:11;6.49;89.85
67586;SHT31;55785;47.946;20.540;2023-04-15T03:11:37;6.49;89.87
67586;SHT31;55785;47.946;20.540;2023-04-15T03:14:03;6.49;89.93
67586;SHT31;55785;47.946;20.540;2023-04-15T03:16:28;6.48;89.95
67586;SHT31;55785;47.946;20.540;2023-04-15T03:18:53;6.44;89.89
67586;SHT31;55785;47.946;20.540;2023-04-15T03:21:19;6.41;89.93
67586;SHT31;55785;47.946;20.540;2023-04-15T03:23:44;6.40;89.95
67586;SHT31;55785;47.946;20.540;2023-04-15T03:26:09;6.40;89.96
67586;SHT31;55785;47.946;20.540;2023-04-15T03:28:47;6.41;90.05
67586;SHT31;55785;47.946;20.540;2023-04-15T03:31:12;6.46;90.11
67586;SHT31;55785;47.946;20.540;2023-04-15T03:33:38;6.52;90.14
67586;SHT31;55785;47.946;20.540;2023-04-15T03:36:03;6.56;90.09
67586;SHT31;55785;47.946;20.540;2023-04-15T03:38:29;6.46;89.99
67586;SHT31;55785;47.946;20.540;2023-04-15T03:40:54;6.41;89.88
67586;SHT31;55785;47.946;20.540;2023-04-15T03:43:19;6.28;89.84
67586;SHT31;55785;47.946;20.540;2023-04-15T03:45:44;6.18;89.87
67586;SHT31;55785;47.946;20.540;2023-04-15T03:48:10;6.06;89.73
67586;SHT31;55785;47.946;20.540;2023-04-15T03:50:35;6.03;89.81
67586;SHT31;55785;47.946;20.540;2023-04-15T03:53:00;6.06;89.88
67586;SHT31;55785;47.946;20.540;2023-04-15T03:55:26;6.09;89.83
67586;SHT31;55785;47.946;20.540;2023-04-15T03:57:51;6.04;89.90
67586;SHT31;55785;47.946;20.540;2023-04-15T04:00:16;6.13;89.91
67586;SHT31;55785;47.946;20.540;2023-04-15T04:02:42;6.03;89.59
67586;SHT31;55785;47.946;20.540;2023-04-15T04:05:07;5.85;89.34
67586;SHT31;55785;47.946;20.540;2023-04-15T04:07:33;5.80;89.57
67586;SHT31;55785;47.946;20.540;2023-04-15T04:09:58;5.80;89.66
67586;SHT31;55785;47.946;20.540;2023-04-15T04:12:23;5.77;89.69
67586;SHT31;55785;47.946;20.540;2023-04-15T04:14:49;5.80;89.69
67586;SHT31;55785;47.946;20.540;2023-04-15T04:17:14;5.76;89.75
67586;SHT31;55785;47.946;20.540;2023-04-15T04:19:39;5.72;89.46
67586;SHT31;55785;47.946;20.540;2023-04-15T04:22:05;5.66;89.57
67586;SHT31;55785;47.946;20.540;2023-04-15T04:24:30;5.55;89.23
67586;SHT31;55785;47.946;20.540;2023-04-15T04:26:55;5.45;89.30
67586;SHT31;55785;47.946;20.540;2023-04-15T04:29:21;5.48;89.37
67586;SHT31;55785;47.946;20.540;2023-04-15T04:31:46;5.42;89.31
67586;SHT31;55785;47.946;20.540;2023-04-15T04:34:12;5.45;89.41
67586;SHT31;55785;47.946;20.540;2023-04-15T04:36:37;5.51;89.53
67586;SHT31;55785;47.946;20.540;2023-04-15T04:39:02;5.52;89.55
67586;SHT31;55785;47.946;20.540;2023-04-15T04:41:28;5.46;89.25
67586;SHT31;55785;47.946;20.540;2023-04-15T04:43:53;5.36;89.24
67586;SHT31;55785;47.946;20.540;2023-04-15T04:46:18;5.39;89.29
67586;SHT31;55785;47.946;20.540;2023-04-15T04:48:44;5.36;89.30
67586;SHT31;55785;47.946;20.540;2023-04-15T04:51:10;5.38;89.38
67586;SHT31;55785;47.946;20.540;2023-04-15T04:53:35;5.53;89.51
67586;SHT31;55785;47.946;20.540;2023-04-15T04:56:00;5.73;89.73
67586;SHT31;55785;47.946;20.540;2023-04-15T04:58:26;5.96;89.86
67586;SHT31;55785;47.946;20.540;2023-04-15T05:00:51;6.14;89.87
67586;SHT31;55785;47.946;20.540;2023-04-15T05:03:16;6.18;89.81
67586;SHT31;55785;47.946;20.540;2023-04-15T05:05:42;6.24;89.78
67586;SHT31;55785;47.946;20.540;2023-04-15T05:08:07;6.27;89.57
67586;SHT31;55785;47.946;20.540;2023-04-15T05:10:32;6.25;89.68
67586;SHT31;55785;47.946;20.540;2023-04-15T05:12:58;6.32;89.80
67586;SHT31;55785;47.946;20.540;2023-04-15T05:15:23;6.46;90.15
67586;SHT31;55785;47.946;20.540;2023-04-15T05:17:48;6.68;90.50
67586;SHT31;55785;47.946;20.540;2023-04-15T05:20:14;6.79;90.44
67586;SHT31;55785;47.946;20.540;2023-04-15T05:22:39;6.92;90.70
67586;SHT31;55785;47.946;20.540;2023-04-15T05:25:05;6.97;90.57
67586;SHT31;55785;47.946;20.540;2023-04-15T05:27:30;6.95;90.76
67586;SHT31;55785;47.946;20.540;2023-04-15T05:29:55;7.06;90.56
67586;SHT31;55785;47.946;20.540;2023-04-15T05:32:21;7.09;90.33
67586;SHT31;55785;47.946;20.540;2023-04-15T05:34:46;7.37;90.51
67586;SHT31;55785;47.946;20.540;2023-04-15T05:37:12;7.65;90.37
67586;SHT31;55785;47.946;20.540;2023-04-15T05:39:38;7.90;89.70
67586;SHT31;55785;47.946;20.540;2023-04-15T05:42:03;7.92;89.32
67586;SHT31;55785;47.946;20.540;2023-04-15T05:44:28;7.88;88.95
67586;SHT31;55785;47.946;20.540;2023-04-15T05:46:54;7.88;88.87
67586;SHT31;55785;47.946;20.540;2023-04-15T05:49:19;8.05;88.91
67586;SHT31;55785;47.946;20.540;2023-04-15T05:51:46;8.29;88.59
67586;SHT31;55785;47.946;20.540;2023-04-15T05:54:11;8.40;87.95
67586;SHT31;55785;47.946;20.540;2023-04-15T05:56:37;8.55;87.58
67586;SHT31;55785;47.946;20.540;2023-04-15T05:59:02;8.69;86.85
67586;SHT31;55785;47.946;20.540;2023-04-15T06:01:27;8.84;86.65
67586;SHT31;55785;47.946;20.540;2023-04-15T06:03:59;8.75;85.65
67586;SHT31;55785;47.946;20.540;2023-04-15T06:06:27;8.85;85.40
67586;SHT31;55785;47.946;20.540;2023-04-15T06:08:52;8.99;85.41
67586;SHT31;55785;47.946;20.540;2023-04-15T06:11:19;9.20;85.19
67586;SHT31;55785;47.946;20.540;2023-04-15T06:13:49;9.29;84.89
67586;SHT31;55785;47.946;20.540;2023-04-15T06:16:15;9.18;84.14
67586;SHT31;55785;47.946;20.540;2023-04-15T06:18:40;8.86;83.60
67586;SHT31;55785;47.946;20.540;2023-04-15T06:21:11;8.68;84.15
67586;SHT31;55785;47.946;20.540;2023-04-15T06:23:47;8.57;84.41
67586;SHT31;55785;47.946;20.540;2023-04-15T06:26:16;8.53;84.80
67586;SHT31;55785;47.946;20.540;2023-04-15T06:28:41;8.48;84.93
67586;SHT31;55785;47.946;20.540;2023-04-15T06:31:09;8.50;84.74
67586;SHT31;55785;47.946;20.540;2023-04-15T06:33:44;8.51;85.10
67586;SHT31;55785;47.946;20.540;2023-04-15T06:36:14;8.50;85.57
67586;SHT31;55785;47.946;20.540;2023-04-15T06:38:40;8.53;85.19
67586;SHT31;55785;47.946;20.540;2023-04-15T06:43:56;8.68;85.38
67586;SHT31;55785;47.946;20.540;2023-04-15T06:46:22;8.68;84.96
67586;SHT31;55785;47.946;20.540;2023-04-15T06:48:50;8.75;84.57
67586;SHT31;55785;47.946;20.540;2023-04-15T06:51:15;8.92;84.52
67586;SHT31;55785;47.946;20.540;2023-04-15T06:53:41;9.01;83.99
67586;SHT31;55785;47.946;20.540;2023-04-15T06:56:11;8.95;83.53
67586;SHT31;55785;47.946;20.540;2023-04-15T07:01:24;9.02;83.91
67586;SHT31;55785;47.946;20.540;2023-04-15T07:03:49;9.02;83.91
67586;SHT31;55785;47.946;20.540;2023-04-15T07:06:15;8.96;83.39
67586;SHT31;55785;47.946;20.540;2023-04-15T07:08:40;8.99;83.96
67586;SHT31;55785;47.946;20.540;2023-04-15T07:11:10;8.96;83.31
67586;SHT31;55785;47.946;20.540;2023-04-15T07:13:38;8.93;83.10
67586;SHT31;55785;47.946;20.540;2023-04-15T07:16:04;8.96;83.16
67586;SHT31;55785;47.946;20.540;2023-04-15T07:18:35;9.02;83.34
67586;SHT31;55785;47.946;20.540;2023-04-15T07:21:08;9.09;83.10
67586;SHT31;55785;47.946;20.540;2023-04-15T07:23:41;9.33;83.12
67586;SHT31;55785;47.946;20.540;2023-04-15T07:26:10;9.73;83.38
67586;SHT31;55785;47.946;20.540;2023-04-15T07:28:40;9.82;81.78
67586;SHT31;55785;47.946;20.540;2023-04-15T07:31:06;9.73;80.84
67586;SHT31;55785;47.946;20.540;2023-04-15T07:33:51;9.65;80.92
67586;SHT31;55785;47.946;20.540;2023-04-15T07:36:35;9.51;80.42
67586;SHT31;55785;47.946;20.540;2023-04-15T07:39:12;9.36;80.31
67586;SHT31;55785;47.946;20.540;2023-04-15T07:41:40;9.43;81.40
67586;SHT31;55785;47.946;20.540;2023-04-15T07:44:05;9.47;81.81
67586;SHT31;55785;47.946;20.540;2023-04-15T07:46:34;9.51;81.99
67586;SHT31;55785;47.946;20.540;2023-04-15T07:49:30;9.57;81.05
67586;SHT31;55785;47.946;20.540;2023-04-15T07:51:58;9.67;80.98
67586;SHT31;55785;47.946;20.540;2023-04-15T07:54:26;9.75;80.33
67586;SHT31;55785;47.946;20.540;2023-04-15T07:56:51;9.91;81.66
67586;SHT31;55785;47.946;20.540;2023-04-15T07:59:19;9.98;80.99
67586;SHT31;55785;47.946;20.540;2023-04-15T08:01:50;10.05;80.57
67586;SHT31;55785;47.946;20.540;2023-04-15T08:04:16;10.46;80.87
67586;SHT31;55785;47.946;20.540;2023-04-15T08:07:07;10.90;77.81
67586;SHT31;55785;47.946;20.540;2023-04-15T08:09:33;11.15;78.73
67586;SHT31;55785;47.946;20.540;2023-04-15T08:11:58;11.28;78.26
67586;SHT31;55785;47.946;20.540;2023-04-15T08:14:27;11.38;78.42
67586;SHT31;55785;47.946;20.540;2023-04-15T08:16:53;11.46;76.49
67586;SHT31;55785;47.946;20.540;2023-04-15T08:19:18;11.56;76.60
67586;SHT31;55785;47.946;20.540;2023-04-15T08:21:43;11.43;75.96
67586;SHT31;55785;47.946;20.540;2023-04-15T08:24:09;11.11;73.82
67586;SHT31;55785;47.946;20.540;2023-04-15T08:26:34;11.39;74.80
67586;SHT31;55785;47.946;20.540;2023-04-15T08:28:59;11.61;74.44
67586;SHT31;55785;47.946;20.540;2023-04-15T08:31:27;11.82;75.01
67586;SHT31;55785;47.946;20.540;2023-04-15T08:33:53;12.31;78.20
67586;SHT31;55785;47.946;20.540;2023-04-15T08:36:19;11.93;71.71
67586;SHT31;55785;47.946;20.540;2023-04-15T08:38:44;11.73;72.95
67586;SHT31;55785;47.946;20.540;2023-04-15T08:41:22;11.52;73.70
67586;SHT31;55785;47.946;20.540;2023-04-15T08:44:00;11.66;72.61
67586;SHT31;55785;47.946;20.540;2023-04-15T08:46:29;11.75;74.68
67586;SHT31;55785;47.946;20.540;2023-04-15T08:48:57;11.89;73.28
67586;SHT31;55785;47.946;20.540;2023-04-15T08:51:22;12.17;74.60
67586;SHT31;55785;47.946;20.540;2023-04-15T08:53:48;12.07;72.63
67586;SHT31;55785;47.946;20.540;2023-04-15T08:56:14;12.00;74.93
67586;SHT31;55785;47.946;20.540;2023-04-15T08:58:40;11.82;73.61
67586;SHT31;55785;47.946;20.540;2023-04-15T09:01:05;11.51;75.00
67586;SHT31;55785;47.946;20.540;2023-04-15T09:03:31;11.36;75.04
67586;SHT31;55785;47.946;20.540;2023-04-15T09:05:58;11.27;74.38
67586;SHT31;55785;47.946;20.540;2023-04-15T09:08:23;11.29;74.99
67586;SHT31;55785;47.946;20.540;2023-04-15T09:10:49;11.21;76.57
67586;SHT31;55785;47.946;20.540;2023-04-15T09:13:14;11.19;75.07
67586;SHT31;55785;47.946;20.540;2023-04-15T09:15:39;11.19;73.98
67586;SHT31;55785;47.946;20.540;2023-04-15T09:18:05;11.31;75.27
67586;SHT31;55785;47.946;20.540;2023-04-15T09:20:38;11.75;75.08
67586;SHT31;55785;47.946;20.540;2023-04-15T09:23:11;12.51;76.88
67586;SHT31;55785;47.946;20.540;2023-04-15T09:25:38;12.56;71.50
67586;SHT31;55785;47.946;20.540;2023-04-15T09:28:04;12.54;72.46
67586;SHT31;55785;47.946;20.540;2023-04-15T09:30:29;12.54;71.72
67586;SHT31;55785;47.946;20.540;2023-04-15T09:33:00;12.89;70.21
67586;SHT31;55785;47.946;20.540;2023-04-15T09:35:26;12.95;76.58
67586;SHT31;55785;47.946;20.540;2023-04-15T09:37:52;12.75;69.92
67586;SHT31;55785;47.946;20.540;2023-04-15T09:40:38;12.37;73.23
67586;SHT31;55785;47.946;20.540;2023-04-15T09:43:04;12.27;73.72
67586;SHT31;55785;47.946;20.540;2023-04-15T09:45:31;12.62;75.42
67586;SHT31;55785;47.946;20.540;2023-04-15T09:47:59;12.81;73.40
67586;SHT31;55785;47.946;20.540;2023-04-15T09:50:28;12.44;71.22
67586;SHT31;55785;47.946;20.540;2023-04-15T09:52:53;12.45;72.95
67586;SHT31;55785;47.946;20.540;2023-04-15T09:55:19;12.13;72.45
67586;SHT31;55785;47.946;20.540;2023-04-15T09:57:45;12.18;70.68
67586;SHT31;55785;47.946;20.540;2023-04-15T10:00:10;12.28;71.04
67586;SHT31;55785;47.946;20.540;2023-04-15T10:02:37;12.34;72.69
67586;SHT31;55785;47.946;20.540;2023-04-15T10:05:04;12.13;73.09
67586;SHT31;55785;47.946;20.540;2023-04-15T10:07:31;11.82;73.18
67586;SHT31;55785;47.946;20.540;2023-04-15T10:09:58;11.85;74.68
67586;SHT31;55785;47.946;20.540;2023-04-15T10:12:25;12.03;74.53
67586;SHT31;55785;47.946;20.540;2023-04-15T10:15:02;12.17;72.88
67586;SHT31;55785;47.946;20.540;2023-04-15T10:17:29;12.12;71.68
67586;SHT31;55785;47.946;20.540;2023-04-15T10:19:56;11.97;71.31
67586;SHT31;55785;47.946;20.540;2023-04-15T10:22:22;11.91;73.18
67586;SHT31;55785;47.946;20.540;2023-04-15T10:24:49;11.73;73.61
67586;SHT31;55785;47.946;20.540;2023-04-15T10:27:16;10.98;74.38
67586;SHT31;55785;47.946;20.540;2023-04-15T10:29:41;10.60;76.25
67586;SHT31;55785;47.946;20.540;2023-04-15T10:32:08;10.28;77.51
67586;SHT31;55785;47.946;20.540;2023-04-15T10:34:33;9.81;72.93
67586;SHT31;55785;47.946;20.540;2023-04-15T10:37:01;9.43;76.40
67586;SHT31;55785;47.946;20.540;2023-04-15T10:42:12;8.54;79.96
67586;SHT31;55785;47.946;20.540;2023-04-15T10:44:40;8.38;79.40
67586;SHT31;55785;47.946;20.540;2023-04-15T10:47:24;8.34;79.31
67586;SHT31;55785;47.946;20.540;2023-04-15T10:49:55;8.44;80.33
67586;SHT31;55785;47.946;20.540;2023-04-15T10:52:26;8.22;82.32
67586;SHT31;55785;47.946;20.540;2023-04-15T10:57:38;7.48;80.52
67586;SHT31;55785;47.946;20.540;2023-04-15T11:02:39;6.96;81.00
67586;SHT31;55785;47.946;20.540;2023-04-15T11:05:05;6.86;82.96
67586;SHT31;55785;47.946;20.540;2023-04-15T11:12:46;6.69;84.09
67586;SHT31;55785;47.946;20.540;2023-04-15T11:15:31;6.58;85.00
67586;SHT31;55785;47.946;20.540;2023-04-15T11:17:59;6.64;85.60
67586;SHT31;55785;47.946;20.540;2023-04-15T11:20:32;6.73;85.87
67586;SHT31;55785;47.946;20.540;2023-04-15T11:22:58;6.80;86.76
67586;SHT31;55785;47.946;20.540;2023-04-15T11:25:28;6.97;86.36
67586;SHT31;55785;47.946;20.540;2023-04-15T11:27:55;7.27;86.77
67586;SHT31;55785;47.946;20.540;2023-04-15T11:30:23;7.64;87.11
67586;SHT31;55785;47.946;20.540;2023-04-15T11:32:54;7.99;87.35
67586;SHT31;55785;47.946;20.540;2023-04-15T11:35:20;8.38;87.31
67586;SHT31;55785;47.946;20.540;2023-04-15T11:37:46;8.68;86.13
67586;SHT31;55785;47.946;20.540;2023-04-15T11:40:12;9.15;85.14
67586;SHT31;55785;47.946;20.540;2023-04-15T11:42:38;9.63;84.52
67586;SHT31;55785;47.946;20.540;2023-04-15T11:45:14;10.09;85.41
67586;SHT31;55785;47.946;20.540;2023-04-15T11:47:40;10.36;84.99
67586;SHT31;55785;47.946;20.540;2023-04-15T11:50:17;10.50;82.97
67586;SHT31;55785;47.946;20.540;2023-04-15T11:52:56;10.61;81.17
67586;SHT31;55785;47.946;20.540;2023-04-15T11:55:25;10.59;79.85
67586;SHT31;55785;47.946;20.540;2023-04-15T11:58:10;10.50;80.85
67586;SHT31;55785;47.946;20.540;2023-04-15T12:00:36;10.33;80.53
67586;SHT31;55785;47.946;20.540;2023-04-15T12:03:20;10.29;80.82
67586;SHT31;55785;47.946;20.540;2023-04-15T12:06:14;10.46;81.24
67586;SHT31;55785;47.946;20.540;2023-04-15T12:11:19;10.64;79.31
67586;SHT31;55785;47.946;20.540;2023-04-15T12:13:49;10.56;77.63
67586;SHT31;55785;47.946;20.540;2023-04-15T12:16:18;10.64;77.42
67586;SHT31;55785;47.946;20.540;2023-04-15T12:18:45;10.81;80.20
67586;SHT31;55785;47.946;20.540;2023-04-15T12:21:10;10.84;78.01
67586;SHT31;55785;47.946;20.540;2023-04-15T12:23:37;11.01;77.61
67586;SHT31;55785;47.946;20.540;2023-04-15T12:26:06;11.04;77.14
67586;SHT31;55785;47.946;20.540;2023-04-15T12:28:31;11.00;77.89
67586;SHT31;55785;47.946;20.540;2023-04-15T12:31:16;10.69;78.75
67586;SHT31;55785;47.946;20.540;2023-04-15T12:33:41;10.32;79.29
67586;SHT31;55785;47.946;20.540;2023-04-15T12:36:07;10.40;79.70
67586;SHT31;55785;47.946;20.540;2023-04-15T12:38:32;10.32;79.07
67586;SHT31;55785;47.946;20.540;2023-04-15T12:40:57;10.13;81.67
67586;SHT31;55785;47.946;20.540;2023-04-15T12:43:23;9.98;83.99
67586;SHT31;55785;47.946;20.540;2023-04-15T12:45:48;10.03;81.73
67586;SHT31;55785;47.946;20.540;2023-04-15T12:48:14;10.18;82.85
67586;SHT31;55785;47.946;20.540;2023-04-15T12:50:39;10.23;83.73
67586;SHT31;55785;47.946;20.540;2023-04-15T12:53:04;10.29;82.90
67586;SHT31;55785;47.946;20.540;2023-04-15T12:55:30;10.35;82.98
67586;SHT31;55785;47.946;20.540;2023-04-15T12:57:56;10.48;83.45
67586;SHT31;55785;47.946;20.540;2023-04-15T13:00:21;10.43;83.11
67586;SHT31;55785;47.946;20.540;2023-04-15T13:02:47;10.48;83.07
67586;SHT31;55785;47.946;20.540;2023-04-15T13:05:12;10.40;82.59
67586;SHT31;55785;47.946;20.540;2023-04-15T13:07:37;10.33;83.44
67586;SHT31;55785;47.946;20.540;2023-04-15T13:10:03;10.29;82.43
67586;SHT31;55785;47.946;20.540;2023-04-15T13:12:28;10.36;83.51
67586;SHT31;55785;47.946;20.540;2023-04-15T13:14:54;10.33;83.56
67586;SHT31;55785;47.946;20.540;2023-04-15T13:17:19;10.32;84.06
67586;SHT31;55785;47.946;20.540;2023-04-15T13:19:45;10.25;83.89
67586;SHT31;55785;47.946;20.540;2023-04-15T13:22:13;10.13;85.29
67586;SHT31;55785;47.946;20.540;2023-04-15T13:24:39;10.13;85.71
67586;SHT31;55785;47.946;20.540;2023-04-15T13:27:04;10.08;85.41
67586;SHT31;55785;47.946;20.540;2023-04-15T13:29:29;10.02;84.57
67586;SHT31;55785;47.946;20.540;2023-04-15T13:31:55;10.06;86.06
67586;SHT31;55785;47.946;20.540;2023-04-15T13:34:20;9.61;83.71
67586;SHT31;55785;47.946;20.540;2023-04-15T13:36:46;9.42;83.05
67586;SHT31;55785;47.946;20.540;2023-04-15T13:39:11;9.25;85.45
67586;SHT31;55785;47.946;20.540;2023-04-15T13:41:37;9.39;83.77
67586;SHT31;55785;47.946;20.540;2023-04-15T13:44:02;9.36;82.62
67586;SHT31;55785;47.946;20.540;2023-04-15T13:46:27;9.27;81.68
67586;SHT31;55785;47.946;20.540;2023-04-15T13:48:53;9.04;81.81
67586;SHT31;55785;47.946;20.540;2023-04-15T13:51:18;9.04;83.24
67586;SHT31;55785;47.946;20.540;2023-04-15T13:53:43;9.04;82.94
67586;SHT31;55785;47.946;20.540;2023-04-15T13:56:09;9.01;83.84
67586;SHT31;55785;47.946;20.540;2023-04-15T13:58:35;8.89;83.41
67586;SHT31;55785;47.946;20.540;2023-04-15T14:01:01;8.84;82.86
67586;SHT31;55785;47.946;20.540;2023-04-15T14:03:26;8.76;83.22
67586;SHT31;55785;47.946;20.540;2023-04-15T14:05:52;8.74;83.68
67586;SHT31;55785;47.946;20.540;2023-04-15T14:08:17;8.67;84.26
67586;SHT31;55785;47.946;20.540;2023-04-15T14:10:42;8.65;84.52
67586;SHT31;55785;47.946;20.540;2023-04-15T14:13:08;8.61;84.89
67586;SHT31;55785;47.946;20.540;2023-04-15T14:15:33;8.58;86.06
67586;SHT31;55785;47.946;20.540;2023-04-15T14:17:58;8.54;86.91
67586;SHT31;55785;47.946;20.540;2023-04-15T14:20:24;8.63;86.00
67586;SHT31;55785;47.946;20.540;2023-04-15T14:22:49;8.64;86.08
67586;SHT31;55785;47.946;20.540;2023-04-15T14:25:14;8.57;87.25
67586;SHT31;55785;47.946;20.540;2023-04-15T14:27:40;8.63;86.67
67586;SHT31;55785;47.946;20.540;2023-04-15T14:30:06;8.74;86.52
67586;SHT31;55785;47.946;20.540;2023-04-15T14:32:31;8.82;86.93
67586;SHT31;55785;47.946;20.540;2023-04-15T14:34:57;8.85;86.09
67586;SHT31;55785;47.946;20.540;2023-04-15T14:37:22;8.89;86.11
67586;SHT31;55785;47.946;20.540;2023-04-15T14:39:47;8.95;85.07
67586;SHT31;55785;47.946;20.540;2023-04-15T14:42:13;9.01;85.20
67586;SHT31;55785;47.946;20.540;2023-04-15T14:44:38;9.09;85.94
67586;SHT31;55785;47.946;20.540;2023-04-15T14:47:03;9.09;85.62
67586;SHT31;55785;47.946;20.540;2023-04-15T14:49:29;9.13;86.12
67586;SHT31;55785;47.946;20.540;2023-04-15T14:51:55;9.20;86.20
67586;SHT31;55785;47.946;20.540;2023-04-15T14:54:20;9.26;86.27
67586;SHT31;55785;47.946;20.540;2023-04-15T14:56:45;9.30;85.97
67586;SHT31;55785;47.946;20.540;2023-04-15T14:59:11;9.39;85.63
67586;SHT31;55785;47.946;20.540;2023-04-15T15:01:36;9.43;84.65
67586;SHT31;55785;47.946;20.540;2023-04-15T15:04:01;9.51;84.33
67586;SHT31;55785;47.946;20.540;2023-04-15T15:06:27;9.60;84.17
67586;SHT31;55785;47.946;20.540;2023-04-15T15:08:52;9.61;84.26
67586;SHT31;55785;47.946;20.540;2023-04-15T15:11:17;9.73;84.40
67586;SHT31;55785;47.946;20.540;2023-04-15T15:13:43;9.88;84.68
67586;SHT31;55785;47.946;20.540;2023-04-15T15:16:08;9.92;83.47
67586;SHT31;55785;47.946;20.540;2023-04-15T15:18:34;10.18;83.92
67586;SHT31;55785;47.946;20.540;2023-04-15T15:21:00;10.42;84.27
67586;SHT31;55785;47.946;20.540;2023-04-15T15:23:25;10.59;83.05
67586;SHT31;55785;47.946;20.540;2023-04-15T15:25:51;10.70;83.38
67586;SHT31;55785;47.946;20.540;2023-04-15T15:28:16;10.70;82.89
67586;SHT31;55785;47.946;20.540;2023-04-15T15:30:41;10.59;81.04
67586;SHT31;55785;47.946;20.540;2023-04-15T15:33:07;10.70;81.81
67586;SHT31;55785;47.946;20.540;2023-04-15T15:35:32;10.71;80.92
67586;SHT31;55785;47.946;20.540;2023-04-15T15:37:58;10.67;80.71
67586;SHT31;55785;47.946;20.540;2023-04-15T15:40:24;10.71;81.29
67586;SHT31;55785;47.946;20.540;2023-04-15T15:42:49;10.74;81.97
67586;SHT31;55785;47.946;20.540;2023-04-15T15:45:14;10.64;81.41